sensor_id;sensor_type;location;lat;lon;timestamp;pressure;altitude;pressure_sealevel;temperature;humidity
6028;BME280;3042;43.194;27.646;2023-04-23T00:00:33;101474.59;;;12.14;100.00
6028;BME280;3042;43.194;27.646;2023-04-23T00:03:05;101665.19;;;13.28;100.00
6028;BME280;3042;43.194;27.646;2023-04-23T00:05:36;101686.53;;;13.06;100.00
6028;BME280;3042;43.194;27.646;2023-04-23T00:08:04;101753.22;;;13.59;100.00
6028;BME280;3042;43.194;27.646;2023-04-23T00:10:31;101756.69;;;13.60;100.00
6028;BME280;3042;43.194;27.646;2023-04-23T00:12:59;101762.06;;;13.63;100.00
6028;BME280;3042;43.194;27.646;2023-04-23T00:15:27;101758.41;;;13.59;100.00
6028;BME280;3042;43.194;27.646;2023-04-23T00:17:54;101756.84;;;13.45;100.00
6028;BME280;3042;43.194;27.646;2023-04-23T00:20:21;101760.28;;;13.44;100.00
6028;BME280;3042;43.194;27.646;2023-04-23T00:22:50;101484.53;;;11.88;100.00
6028;BME280;3042;43.194;27.646;2023-04-23T00:25:17;101759.44;;;13.45;100.00
6028;BME280;3042;43.194;27.646;2023-04-23T00:27:44;101759.13;;;13.39;100.00
6028;BME280;3042;43.194;27.646;2023-04-23T00:30:12;101773.09;;;13.24;100.00
6028;BME280;3042;43.194;27.646;2023-04-23T00:32:41;101683.25;;;12.74;100.00
6028;BME280;3042;43.194;27.646;2023-04-23T00:35:09;101770.44;;;13.23;100.00
6028;BME280;3042;43.194;27.646;2023-04-23T00:37:36;101690.72;;;12.52;100.00
6028;BME280;3042;43.194;27.646;2023-04-23T00:40:06;101699.78;;;12.76;100.00
6028;BME280;3042;43.194;27.646;2023-04-23T00:42:34;101765.34;;;13.08;100.00
6028;BME280;3042;43.194;27.646;2023-04-23T00:45:02;101797.28;;;13.23;100.00
6028;BME280;3042;43.194;27.646;2023-04-23T00:47:29;101763.59;;;13.07;100.00
6028;BME280;3042;43.194;27.646;2023-04-23T00:49:58;101050.34;;;9.09;100.00
6028;BME280;3042;43.194;27.646;2023-04-23T00:52:26;101641.66;;;12.38;100.00
6028;BME280;3042;43.194;27.646;2023-04-23T00:54:53;101753.16;;;13.23;100.00
6028;BME280;3042;43.194;27.646;2023-04-23T00:57:22;101694.19;;;13.03;100.00
6028;BME280;3042;43.194;27.646;2023-04-23T00:59:50;101754.47;;;13.32;100.00
6028;BME280;3042;43.194;27.646;2023-04-23T01:02:19;101752.53;;;13.27;100.00
6028;BME280;3042;43.194;27.646;2023-04-23T01:04:47;101735.56;;;13.18;100.00
6028;BME280;3042;43.194;27.646;2023-04-23T01:07:16;101728.00;;;13.22;100.00
6028;BME280;3042;43.194;27.646;2023-04-23T01:09:43;101745.34;;;13.40;100.00
6028;BME280;3042;43.194;27.646;2023-04-23T01:12:10;101637.81;;;12.82;100.00
6028;BME280;3042;43.194;27.646;2023-04-23T01:14:42;101339.56;;;10.87;100.00
6028;BME280;3042;43.194;27.646;2023-04-23T01:17:09;101746.66;;;13.32;100.00
6028;BME280;3042;43.194;27.646;2023-04-23T01:19:38;101732.38;;;13.40;100.00
6028;BME280;3042;43.194;27.646;2023-04-23T01:22:09;101748.38;;;13.31;100.00
6028;BME280;3042;43.194;27.646;2023-04-23T01:24:37;101743.53;;;13.21;100.00
6028;BME280;3042;43.194;27.646;2023-04-23T01:27:04;101758.53;;;13.10;100.00
6028;BME280;3042;43.194;27.646;2023-04-23T01:29:32;101733.16;;;12.86;100.00
6028;BME280;3042;43.194;27.646;2023-04-23T01:32:01;101409.66;;;11.09;100.00
6028;BME280;3042;43.194;27.646;2023-04-23T01:34:29;101591.16;;;12.14;100.00
6028;BME280;3042;43.194;27.646;2023-04-23T01:36:58;101758.91;;;13.00;100.00
6028;BME280;3042;43.194;27.646;2023-04-23T01:39:26;101758.19;;;12.86;100.00
6028;BME280;3042;43.194;27.646;2023-04-23T01:41:54;101759.44;;;12.76;100.00
6028;BME280;3042;43.194;27.646;2023-04-23T01:44:21;101760.06;;;12.72;100.00
6028;BME280;3042;43.194;27.646;2023-04-23T01:46:49;101761.09;;;12.76;100.00
6028;BME280;3042;43.194;27.646;2023-04-23T01:49:17;101684.91;;;12.39;100.00
6028;BME280;3042;43.194;27.646;2023-04-23T01:51:44;101756.66;;;12.73;100.00
6028;BME280;3042;43.194;27.646;2023-04-23T01:54:11;101376.97;;;10.46;100.00
6028;BME280;3042;43.194;27.646;2023-04-23T01:56:40;101759.94;;;12.69;100.00
6028;BME280;3042;43.194;27.646;2023-04-23T01:59:07;101788.44;;;12.69;100.00
6028;BME280;3042;43.194;27.646;2023-04-23T02:01:41;101761.69;;;12.70;100.00
6028;BME280;3042;43.194;27.646;2023-04-23T02:04:10;101377.59;;;9.96;100.00
6028;BME280;3042;43.194;27.646;2023-04-23T02:06:38;101775.50;;;12.53;100.00
6028;BME280;3042;43.194;27.646;2023-04-23T02:09:05;101255.22;;;9.46;100.00
6028;BME280;3042;43.194;27.646;2023-04-23T02:11:33;101777.34;;;12.55;100.00
6028;BME280;3042;43.194;27.646;2023-04-23T02:14:02;101771.72;;;12.64;100.00
6028;BME280;3042;43.194;27.646;2023-04-23T02:16:30;101777.25;;;12.70;100.00
6028;BME280;3042;43.194;27.646;2023-04-23T02:18:57;101796.03;;;12.66;100.00
6028;BME280;3042;43.194;27.646;2023-04-23T02:21:24;101773.69;;;12.68;100.00
6028;BME280;3042;43.194;27.646;2023-04-23T02:23:52;101774.66;;;12.70;100.00
6028;BME280;3042;43.194;27.646;2023-04-23T02:26:19;101777.25;;;12.70;100.00
6028;BME280;3042;43.194;27.646;2023-04-23T02:28:47;101704.03;;;12.25;100.00
6028;BME280;3042;43.194;27.646;2023-04-23T02:31:16;101685.16;;;12.11;100.00
6028;BME280;3042;43.194;27.646;2023-04-23T02:33:45;101765.13;;;12.69;100.00
6028;BME280;3042;43.194;27.646;2023-04-23T02:36:12;101774.31;;;12.64;100.00
6028;BME280;3042;43.194;27.646;2023-04-23T02:38:40;101377.91;;;10.02;100.00
6028;BME280;3042;43.194;27.646;2023-04-23T02:41:09;101772.31;;;12.58;100.00
6028;BME280;3042;43.194;27.646;2023-04-23T02:43:36;101542.00;;;11.17;100.00
6028;BME280;3042;43.194;27.646;2023-04-23T02:46:04;101808.19;;;12.34;100.00
6028;BME280;3042;43.194;27.646;2023-04-23T02:48:37;101767.38;;;12.46;100.00
6028;BME280;3042;43.194;27.646;2023-04-23T02:51:06;101775.16;;;12.46;100.00
6028;BME280;3042;43.194;27.646;2023-04-23T02:53:33;101768.09;;;12.44;100.00
6028;BME280;3042;43.194;27.646;2023-04-23T02:56:00;101692.19;;;11.97;100.00
6028;BME280;3042;43.194;27.646;2023-04-23T02:58:28;101754.16;;;12.25;100.00
6028;BME280;3042;43.194;27.646;2023-04-23T03:00:55;101776.50;;;12.40;100.00
6028;BME280;3042;43.194;27.646;2023-04-23T03:03:23;101775.28;;;12.33;100.00
6028;BME280;3042;43.194;27.646;2023-04-23T03:05:53;101778.69;;;12.32;100.00
6028;BME280;3042;43.194;27.646;2023-04-23T03:08:20;101774.00;;;12.25;100.00
6028;BME280;3042;43.194;27.646;2023-04-23T03:10:48;101772.94;;;12.21;100.00
6028;BME280;3042;43.194;27.646;2023-04-23T03:13:15;101396.19;;;9.75;100.00
6028;BME280;3042;43.194;27.646;2023-04-23T03:15:42;101786.09;;;12.10;100.00
6028;BME280;3042;43.194;27.646;2023-04-23T03:18:09;101686.06;;;11.49;100.00
6028;BME280;3042;43.194;27.646;2023-04-23T03:20:36;101776.16;;;12.17;100.00
6028;BME280;3042;43.194;27.646;2023-04-23T03:23:05;101779.81;;;12.21;100.00
6028;BME280;3042;43.194;27.646;2023-04-23T03:25:32;101774.97;;;12.27;100.00
6028;BME280;3042;43.194;27.646;2023-04-23T03:27:59;101770.09;;;12.33;100.00
6028;BME280;3042;43.194;27.646;2023-04-23T03:30:27;101696.19;;;11.76;100.00
6028;BME280;3042;43.194;27.646;2023-04-23T03:32:55;101728.13;;;12.08;100.00
6028;BME280;3042;43.194;27.646;2023-04-23T03:35:23;101783.06;;;12.50;100.00
6028;BME280;3042;43.194;27.646;2023-04-23T03:37:50;101395.88;;;10.15;100.00
6028;BME280;3042;43.194;27.646;2023-04-23T03:40:19;101735.53;;;12.16;100.00
6028;BME280;3042;43.194;27.646;2023-04-23T03:42:46;101761.84;;;12.40;100.00
6028;BME280;3042;43.194;27.646;2023-04-23T03:45:14;101734.00;;;12.36;100.00
6028;BME280;3042;43.194;27.646;2023-04-23T03:47:42;101781.31;;;12.81;100.00
6028;BME280;3042;43.194;27.646;2023-04-23T03:50:09;101779.69;;;12.83;100.00
6028;BME280;3042;43.194;27.646;2023-04-23T03:52:37;101707.03;;;12.49;100.00
6028;BME280;3042;43.194;27.646;2023-04-23T03:55:05;101783.13;;;13.00;100.00
6028;BME280;3042;43.194;27.646;2023-04-23T03:57:35;101800.22;;;13.13;100.00
6028;BME280;3042;43.194;27.646;2023-04-23T04:00:03;101791.31;;;13.08;100.00
6028;BME280;3042;43.194;27.646;2023-04-23T04:02:32;101657.63;;;12.30;100.00
6028;BME280;3042;43.194;27.646;2023-04-23T04:05:00;101789.03;;;13.30;100.00
6028;BME280;3042;43.194;27.646;2023-04-23T04:07:27;101789.63;;;13.43;100.00
6028;BME280;3042;43.194;27.646;2023-04-23T04:09:54;101794.53;;;13.55;100.00
6028;BME280;3042;43.194;27.646;2023-04-23T04:12:21;101791.66;;;13.66;100.00
6028;BME280;3042;43.194;27.646;2023-04-23T04:14:50;101755.50;;;13.53;100.00
6028;BME280;3042;43.194;27.646;2023-04-23T04:17:17;101783.41;;;13.93;100.00
6028;BME280;3042;43.194;27.646;2023-04-23T04:19:44;101791.13;;;14.09;100.00
6028;BME280;3042;43.194;27.646;2023-04-23T04:22:11;101789.28;;;14.26;100.00
6028;BME280;3042;43.194;27.646;2023-04-23T04:24:38;101798.00;;;14.46;100.00
6028;BME280;3042;43.194;27.646;2023-04-23T04:27:06;101786.56;;;14.80;100.00
6028;BME280;3042;43.194;27.646;2023-04-23T04:29:34;101790.09;;;15.02;100.00
6028;BME280;3042;43.194;27.646;2023-04-23T04:32:16;101792.81;;;15.05;100.00
6028;BME280;3042;43.194;27.646;2023-04-23T04:34:44;101735.31;;;14.79;100.00
6028;BME280;3042;43.194;27.646;2023-04-23T04:37:11;101672.25;;;14.64;100.00
6028;BME280;3042;43.194;27.646;2023-04-23T04:39:38;101789.06;;;15.61;100.00
6028;BME280;3042;43.194;27.646;2023-04-23T04:42:06;101790.81;;;15.81;100.00
6028;BME280;3042;43.194;27.646;2023-04-23T04:44:33;101587.63;;;15.15;100.00
6028;BME280;3042;43.194;27.646;2023-04-23T04:47:02;101734.22;;;16.72;100.00
6028;BME280;3042;43.194;27.646;2023-04-23T04:49:30;101775.03;;;17.45;100.00
6028;BME280;3042;43.194;27.646;2023-04-23T04:51:57;101730.41;;;17.39;100.00
6028;BME280;3042;43.194;27.646;2023-04-23T04:54:24;101426.25;;;16.16;100.00
6028;BME280;3042;43.194;27.646;2023-04-23T04:56:51;101751.72;;;18.38;100.00
6028;BME280;3042;43.194;27.646;2023-04-23T04:59:19;101739.28;;;18.91;100.00
6028;BME280;3042;43.194;27.646;2023-04-23T05:01:46;101750.41;;;19.88;100.00
6028;BME280;3042;43.194;27.646;2023-04-23T05:04:13;101748.00;;;20.41;100.00
6028;BME280;3042;43.194;27.646;2023-04-23T05:06:42;101729.78;;;20.95;100.00
6028;BME280;3042;43.194;27.646;2023-04-23T05:09:09;101671.03;;;21.43;100.00
6028;BME280;3042;43.194;27.646;2023-04-23T05:11:36;101717.63;;;22.19;100.00
6028;BME280;3042;43.194;27.646;2023-04-23T05:14:04;101718.72;;;22.31;100.00
6028;BME280;3042;43.194;27.646;2023-04-23T05:16:32;101708.53;;;22.65;100.00
6028;BME280;3042;43.194;27.646;2023-04-23T05:18:59;101719.69;;;22.41;100.00
6028;BME280;3042;43.194;27.646;2023-04-23T05:21:26;101717.97;;;22.43;100.00
6028;BME280;3042;43.194;27.646;2023-04-23T05:23:55;101713.75;;;22.61;100.00
6028;BME280;3042;43.194;27.646;2023-04-23T05:26:22;101717.41;;;22.73;100.00
6028;BME280;3042;43.194;27.646;2023-04-23T05:28:49;101713.03;;;22.77;100.00
6028;BME280;3042;43.194;27.646;2023-04-23T05:31:16;101670.88;;;22.77;100.00
6028;BME280;3042;43.194;27.646;2023-04-23T05:33:44;101709.69;;;22.93;100.00
6028;BME280;3042;43.194;27.646;2023-04-23T05:36:11;101695.50;;;22.82;100.00
6028;BME280;3042;43.194;27.646;2023-04-23T05:38:38;101701.06;;;23.10;100.00
6028;BME280;3042;43.194;27.646;2023-04-23T05:41:07;101718.47;;;22.92;100.00
6028;BME280;3042;43.194;27.646;2023-04-23T05:43:34;101669.25;;;22.90;100.00
6028;BME280;3042;43.194;27.646;2023-04-23T05:46:01;101700.41;;;23.38;100.00
6028;BME280;3042;43.194;27.646;2023-04-23T05:48:30;101696.00;;;23.41;100.00
6028;BME280;3042;43.194;27.646;2023-04-23T05:50:58;101675.72;;;23.32;100.00
6028;BME280;3042;43.194;27.646;2023-04-23T05:53:26;101716.22;;;23.35;100.00
6028;BME280;3042;43.194;27.646;2023-04-23T05:55:53;101714.50;;;23.42;100.00
6028;BME280;3042;43.194;27.646;2023-04-23T05:58:22;101704.88;;;23.49;100.00
6028;BME280;3042;43.194;27.646;2023-04-23T06:00:50;101710.13;;;23.46;100.00
6028;BME280;3042;43.194;27.646;2023-04-23T06:03:18;101698.81;;;23.64;100.00
6028;BME280;3042;43.194;27.646;2023-04-23T06:05:45;101713.69;;;23.51;100.00
6028;BME280;3042;43.194;27.646;2023-04-23T06:08:12;101565.47;;;22.74;100.00
6028;BME280;3042;43.194;27.646;2023-04-23T06:10:40;101526.66;;;22.54;100.00
6028;BME280;3042;43.194;27.646;2023-04-23T06:13:07;101515.84;;;22.21;100.00
6028;BME280;3042;43.194;27.646;2023-04-23T06:15:37;101717.25;;;23.60;100.00
6028;BME280;3042;43.194;27.646;2023-04-23T06:18:04;101650.47;;;23.72;100.00
6028;BME280;3042;43.194;27.646;2023-04-23T06:20:31;101601.31;;;24.02;100.00
6028;BME280;3042;43.194;27.646;2023-04-23T06:22:58;101684.28;;;25.04;100.00
6028;BME280;3042;43.194;27.646;2023-04-23T06:25:27;101684.25;;;25.42;100.00
6028;BME280;3042;43.194;27.646;2023-04-23T06:27:54;101693.97;;;25.46;100.00
6028;BME280;3042;43.194;27.646;2023-04-23T06:30:22;101677.06;;;25.86;100.00
6028;BME280;3042;43.194;27.646;2023-04-23T06:32:51;101664.53;;;26.29;100.00
6028;BME280;3042;43.194;27.646;2023-04-23T06:35:18;101666.06;;;26.64;100.00
6028;BME280;3042;43.194;27.646;2023-04-23T06:37:45;101662.34;;;26.90;96.28
6028;BME280;3042;43.194;27.646;2023-04-23T06:40:13;101623.38;;;26.98;94.78
6028;BME280;3042;43.194;27.646;2023-04-23T06:42:40;101656.56;;;27.42;92.18
6028;BME280;3042;43.194;27.646;2023-04-23T06:45:08;101651.66;;;27.81;91.16
6028;BME280;3042;43.194;27.646;2023-04-23T06:47:36;101665.31;;;27.50;89.70
6028;BME280;3042;43.194;27.646;2023-04-23T06:50:06;101561.03;;;26.45;89.32
6028;BME280;3042;43.194;27.646;2023-04-23T06:52:33;101702.19;;;26.81;90.40
6028;BME280;3042;43.194;27.646;2023-04-23T06:55:01;101713.84;;;26.61;92.79
6028;BME280;3042;43.194;27.646;2023-04-23T06:57:28;101723.72;;;26.28;95.70
6028;BME280;3042;43.194;27.646;2023-04-23T06:59:55;101738.88;;;25.96;97.84
6028;BME280;3042;43.194;27.646;2023-04-23T07:02:22;101752.13;;;25.77;99.87
6028;BME280;3042;43.194;27.646;2023-04-23T07:04:50;101753.06;;;25.64;100.00
6028;BME280;3042;43.194;27.646;2023-04-23T07:07:19;101758.38;;;25.55;100.00
6028;BME280;3042;43.194;27.646;2023-04-23T07:09:46;101412.88;;;23.38;100.00
6028;BME280;3042;43.194;27.646;2023-04-23T07:12:13;101772.44;;;25.11;100.00
6028;BME280;3042;43.194;27.646;2023-04-23T07:14:40;101770.66;;;25.00;100.00
6028;BME280;3042;43.194;27.646;2023-04-23T07:17:08;101775.00;;;24.64;100.00
6028;BME280;3042;43.194;27.646;2023-04-23T07:19:36;101528.78;;;23.08;100.00
6028;BME280;3042;43.194;27.646;2023-04-23T07:22:03;101763.59;;;24.81;100.00
6028;BME280;3042;43.194;27.646;2023-04-23T07:24:31;101760.06;;;24.85;100.00
6028;BME280;3042;43.194;27.646;2023-04-23T07:26:58;101735.41;;;24.83;100.00
6028;BME280;3042;43.194;27.646;2023-04-23T07:29:26;101484.06;;;23.28;100.00
6028;BME280;3042;43.194;27.646;2023-04-23T07:31:53;101480.47;;;23.07;100.00
6028;BME280;3042;43.194;27.646;2023-04-23T07:34:20;101757.41;;;24.76;100.00
6028;BME280;3042;43.194;27.646;2023-04-23T07:36:48;101735.41;;;24.98;100.00
6028;BME280;3042;43.194;27.646;2023-04-23T07:39:16;101705.44;;;25.12;100.00
6028;BME280;3042;43.194;27.646;2023-04-23T07:41:45;101717.78;;;25.13;100.00
6028;BME280;3042;43.194;27.646;2023-04-23T07:44:12;101362.72;;;23.25;100.00
6028;BME280;3042;43.194;27.646;2023-04-23T07:46:40;101721.31;;;25.39;100.00
6028;BME280;3042;43.194;27.646;2023-04-23T07:49:07;101724.84;;;25.26;100.00
6028;BME280;3042;43.194;27.646;2023-04-23T07:51:34;101569.69;;;24.40;100.00
6028;BME280;3042;43.194;27.646;2023-04-23T07:54:01;101712.50;;;25.16;100.00
6028;BME280;3042;43.194;27.646;2023-04-23T07:56:29;101614.66;;;24.74;98.14
6028;BME280;3042;43.194;27.646;2023-04-23T07:58:58;101701.91;;;25.46;95.94
6028;BME280;3042;43.194;27.646;2023-04-23T08:01:25;101699.25;;;25.45;95.29
6028;BME280;3042;43.194;27.646;2023-04-23T08:03:53;101626.94;;;25.26;95.20
6028;BME280;3042;43.194;27.646;2023-04-23T08:06:21;101687.72;;;25.72;94.53
6028;BME280;3042;43.194;27.646;2023-04-23T08:08:48;101302.09;;;23.42;94.18
6028;BME280;3042;43.194;27.646;2023-04-23T08:11:15;101562.59;;;25.09;94.36
6028;BME280;3042;43.194;27.646;2023-04-23T08:13:42;101677.13;;;25.70;91.56
6028;BME280;3042;43.194;27.646;2023-04-23T08:16:11;101680.72;;;25.53;95.65
6028;BME280;3042;43.194;27.646;2023-04-23T08:18:38;101681.63;;;25.50;91.43
6028;BME280;3042;43.194;27.646;2023-04-23T08:21:05;101691.34;;;25.28;88.70
6028;BME280;3042;43.194;27.646;2023-04-23T08:23:33;101689.56;;;25.35;85.19
6028;BME280;3042;43.194;27.646;2023-04-23T08:26:00;101629.63;;;25.01;82.90
6028;BME280;3042;43.194;27.646;2023-04-23T08:28:28;101675.44;;;25.46;84.74
6028;BME280;3042;43.194;27.646;2023-04-23T08:30:55;101698.41;;;24.98;88.30
6028;BME280;3042;43.194;27.646;2023-04-23T08:33:24;101671.94;;;25.29;83.80
6028;BME280;3042;43.194;27.646;2023-04-23T08:35:51;101550.28;;;25.00;84.70
6028;BME280;3042;43.194;27.646;2023-04-23T08:38:18;101446.34;;;23.64;83.31
6028;BME280;3042;43.194;27.646;2023-04-23T08:40:48;101682.50;;;25.04;83.20
6028;BME280;3042;43.194;27.646;2023-04-23T08:43:19;101657.81;;;25.45;80.09
6028;BME280;3042;43.194;27.646;2023-04-23T08:45:47;101538.78;;;25.12;76.81
6028;BME280;3042;43.194;27.646;2023-04-23T08:48:14;101609.72;;;26.35;75.83
6028;BME280;3042;43.194;27.646;2023-04-23T08:50:44;101497.13;;;25.63;71.75
6028;BME280;3042;43.194;27.646;2023-04-23T08:53:16;101577.25;;;27.08;71.50
6028;BME280;3042;43.194;27.646;2023-04-23T08:55:44;101609.72;;;26.31;71.77
6028;BME280;3042;43.194;27.646;2023-04-23T08:58:11;101631.13;;;26.01;68.74
6028;BME280;3042;43.194;27.646;2023-04-23T09:00:39;101632.97;;;25.89;67.07
6028;BME280;3042;43.194;27.646;2023-04-23T09:03:07;101591.06;;;26.47;62.50
6028;BME280;3042;43.194;27.646;2023-04-23T09:05:35;101586.63;;;26.55;58.50
6028;BME280;3042;43.194;27.646;2023-04-23T09:08:05;101574.09;;;26.71;60.18
6028;BME280;3042;43.194;27.646;2023-04-23T09:10:36;101578.59;;;26.63;59.95
6028;BME280;3042;43.194;27.646;2023-04-23T09:13:06;101596.38;;;26.45;59.44
6028;BME280;3042;43.194;27.646;2023-04-23T09:15:33;101603.69;;;26.09;58.14
6028;BME280;3042;43.194;27.646;2023-04-23T09:18:03;101568.50;;;25.84;56.19
6028;BME280;3042;43.194;27.646;2023-04-23T09:20:34;101601.81;;;26.28;60.47
6028;BME280;3042;43.194;27.646;2023-04-23T09:23:07;101574.22;;;26.60;59.96
6028;BME280;3042;43.194;27.646;2023-04-23T09:25:38;101561.53;;;26.93;58.85
6028;BME280;3042;43.194;27.646;2023-04-23T09:28:08;101558.34;;;26.51;58.09
6028;BME280;3042;43.194;27.646;2023-04-23T09:30:38;101594.84;;;26.14;58.50
6028;BME280;3042;43.194;27.646;2023-04-23T09:33:07;101610.00;;;25.85;59.65
6028;BME280;3042;43.194;27.646;2023-04-23T09:35:36;101588.94;;;25.58;62.81
6028;BME280;3042;43.194;27.646;2023-04-23T09:38:10;101624.22;;;25.54;68.59
6028;BME280;3042;43.194;27.646;2023-04-23T09:40:38;101150.88;;;22.75;64.46
6028;BME280;3042;43.194;27.646;2023-04-23T09:43:10;101615.34;;;25.76;67.14
6028;BME280;3042;43.194;27.646;2023-04-23T09:45:47;101527.44;;;24.57;65.05
6028;BME280;3042;43.194;27.646;2023-04-23T09:48:15;101562.47;;;25.58;68.04
6028;BME280;3042;43.194;27.646;2023-04-23T09:50:42;101499.13;;;25.02;63.78
6028;BME280;3042;43.194;27.646;2023-04-23T09:53:13;101612.66;;;25.78;64.94
6028;BME280;3042;43.194;27.646;2023-04-23T09:55:40;101598.53;;;25.85;60.79
6028;BME280;3042;43.194;27.646;2023-04-23T09:58:10;101595.75;;;26.11;60.32
6028;BME280;3042;43.194;27.646;2023-04-23T10:00:38;101578.88;;;26.24;60.27
6028;BME280;3042;43.194;27.646;2023-04-23T10:03:07;101371.38;;;24.90;57.79
6028;BME280;3042;43.194;27.646;2023-04-23T10:05:40;101600.28;;;25.81;57.67
6028;BME280;3042;43.194;27.646;2023-04-23T10:08:07;101405.44;;;25.49;59.09
6028;BME280;3042;43.194;27.646;2023-04-23T10:10:36;101565.63;;;26.24;56.23
6028;BME280;3042;43.194;27.646;2023-04-23T10:13:04;101518.91;;;26.14;58.83
6028;BME280;3042;43.194;27.646;2023-04-23T10:15:32;101555.66;;;26.59;57.35
6028;BME280;3042;43.194;27.646;2023-04-23T10:17:59;101578.03;;;26.19;57.31
6028;BME280;3042;43.194;27.646;2023-04-23T10:20:28;101567.25;;;26.41;57.06
6028;BME280;3042;43.194;27.646;2023-04-23T10:22:56;101352.84;;;24.94;56.74
6028;BME280;3042;43.194;27.646;2023-04-23T10:25:27;101532.44;;;25.60;60.56
6028;BME280;3042;43.194;27.646;2023-04-23T10:27:57;101537.66;;;25.74;59.79
6028;BME280;3042;43.194;27.646;2023-04-23T10:30:25;101473.41;;;25.44;63.88
6028;BME280;3042;43.194;27.646;2023-04-23T10:32:54;101571.06;;;26.03;61.29
6028;BME280;3042;43.194;27.646;2023-04-23T10:35:22;101579.97;;;25.91;60.48
6028;BME280;3042;43.194;27.646;2023-04-23T10:37:50;101549.50;;;26.52;59.66
6028;BME280;3042;43.194;27.646;2023-04-23T10:40:20;101572.06;;;25.88;58.98
6028;BME280;3042;43.194;27.646;2023-04-23T10:42:51;101597.84;;;25.38;62.07
6028;BME280;3042;43.194;27.646;2023-04-23T10:45:21;101587.22;;;25.44;59.96
6028;BME280;3042;43.194;27.646;2023-04-23T10:47:48;101533.47;;;25.25;60.07
6028;BME280;3042;43.194;27.646;2023-04-23T10:50:23;101507.00;;;25.30;59.72
6028;BME280;3042;43.194;27.646;2023-04-23T10:52:51;101585.38;;;25.59;60.27
6028;BME280;3042;43.194;27.646;2023-04-23T10:55:20;101562.25;;;26.01;58.83
6028;BME280;3042;43.194;27.646;2023-04-23T10:57:55;101521.50;;;26.20;58.28
6028;BME280;3042;43.194;27.646;2023-04-23T11:00:25;101551.63;;;26.07;56.94
6028;BME280;3042;43.194;27.646;2023-04-23T11:02:52;101551.63;;;26.08;59.75
6028;BME280;3042;43.194;27.646;2023-04-23T11:05:20;101532.88;;;26.31;57.33
6028;BME280;3042;43.194;27.646;2023-04-23T11:08:04;101503.03;;;26.09;54.34
6028;BME280;3042;43.194;27.646;2023-04-23T11:10:32;101505.78;;;25.97;62.44
6028;BME280;3042;43.194;27.646;2023-04-23T11:13:21;101580.19;;;25.34;70.94
6028;BME280;3042;43.194;27.646;2023-04-23T11:16:13;101575.00;;;24.82;74.49
6028;BME280;3042;43.194;27.646;2023-04-23T11:18:57;101360.13;;;23.42;74.44
6028;BME280;3042;43.194;27.646;2023-04-23T11:22:01;101606.72;;;24.63;72.92
6028;BME280;3042;43.194;27.646;2023-04-23T11:24:29;101619.06;;;24.61;75.92
6028;BME280;3042;43.194;27.646;2023-04-23T11:26:58;101578.41;;;25.39;77.80
6028;BME280;3042;43.194;27.646;2023-04-23T11:29:27;101478.09;;;24.62;72.58
6028;BME280;3042;43.194;27.646;2023-04-23T11:31:56;101558.94;;;23.68;70.88
6028;BME280;3042;43.194;27.646;2023-04-23T11:34:23;101594.22;;;23.76;73.18
6028;BME280;3042;43.194;27.646;2023-04-23T11:36:52;101551.19;;;24.70;72.41
6028;BME280;3042;43.194;27.646;2023-04-23T11:39:20;101425.22;;;24.62;70.48
6028;BME280;3042;43.194;27.646;2023-04-23T11:41:48;101418.25;;;24.03;75.72
6028;BME280;3042;43.194;27.646;2023-04-23T11:44:17;101585.53;;;25.13;75.44
6028;BME280;3042;43.194;27.646;2023-04-23T11:46:46;101284.50;;;23.41;71.19
6028;BME280;3042;43.194;27.646;2023-04-23T11:49:15;101532.69;;;24.79;68.10
6028;BME280;3042;43.194;27.646;2023-04-23T11:51:44;101540.50;;;25.40;70.29
6028;BME280;3042;43.194;27.646;2023-04-23T11:54:11;101522.91;;;25.07;69.35
6028;BME280;3042;43.194;27.646;2023-04-23T11:56:39;101342.53;;;23.25;68.54
6028;BME280;3042;43.194;27.646;2023-04-23T11:59:07;101455.19;;;23.75;68.86
6028;BME280;3042;43.194;27.646;2023-04-23T12:01:44;101578.47;;;25.18;71.62
6028;BME280;3042;43.194;27.646;2023-04-23T12:04:13;101352.22;;;23.45;70.83
6028;BME280;3042;43.194;27.646;2023-04-23T12:06:43;101575.84;;;25.10;72.29
6028;BME280;3042;43.194;27.646;2023-04-23T12:09:11;101456.97;;;24.59;69.58
6028;BME280;3042;43.194;27.646;2023-04-23T12:11:39;101564.38;;;25.13;68.08
6028;BME280;3042;43.194;27.646;2023-04-23T12:14:08;101394.38;;;24.68;71.97
6028;BME280;3042;43.194;27.646;2023-04-23T12:16:37;101559.97;;;25.05;70.14
6028;BME280;3042;43.194;27.646;2023-04-23T12:19:11;101554.69;;;25.05;68.55
6028;BME280;3042;43.194;27.646;2023-04-23T12:21:51;101536.00;;;25.58;71.89
6028;BME280;3042;43.194;27.646;2023-04-23T12:24:20;101237.88;;;23.78;70.36
6028;BME280;3042;43.194;27.646;2023-04-23T12:26:52;101524.69;;;25.20;69.20
6028;BME280;3042;43.194;27.646;2023-04-23T12:29:21;101552.03;;;25.09;68.82
6028;BME280;3042;43.194;27.646;2023-04-23T12:31:49;101541.44;;;25.21;71.52
6028;BME280;3042;43.194;27.646;2023-04-23T12:34:18;101478.88;;;24.95;70.55
6028;BME280;3042;43.194;27.646;2023-04-23T12:36:47;101532.59;;;25.25;70.31
6028;BME280;3042;43.194;27.646;2023-04-23T12:39:21;101363.56;;;24.68;69.56
6028;BME280;3042;43.194;27.646;2023-04-23T12:41:50;101517.66;;;24.98;68.82
6028;BME280;3042;43.194;27.646;2023-04-23T12:44:17;101497.34;;;25.11;71.12
6028;BME280;3042;43.194;27.646;2023-04-23T12:46:48;101505.06;;;25.69;71.92
6028;BME280;3042;43.194;27.646;2023-04-23T12:49:15;101502.31;;;25.83;72.30
6028;BME280;3042;43.194;27.646;2023-04-23T12:51:42;101496.19;;;25.75;70.03
6028;BME280;3042;43.194;27.646;2023-04-23T12:54:10;101512.25;;;25.38;68.68
6028;BME280;3042;43.194;27.646;2023-04-23T12:56:39;101520.19;;;25.41;71.09
6028;BME280;3042;43.194;27.646;2023-04-23T12:59:06;101520.28;;;25.19;71.46
6028;BME280;3042;43.194;27.646;2023-04-23T13:01:33;101552.09;;;24.69;69.55